Time;durP1;ratioP1;P1;durP2;ratioP2;P2;SDS_P1;SDS_P2;PMS_P1;PMS_P2;Temp;Humidity;BMP_temperature;BMP_pressure;BME280_temperature;BME280_humidity;BME280_pressure;Samples;Min_cycle;Max_cycle;Signal;HPM_P1;HPM_P2
2021/09/07 00:00:57;;;;;;;;;;;21.80;99.90;;;22.01;100.00;100528.81;5058552;28;19925;-63
2021/09/07 00:03:27;;;;;;;;;;;21.80;99.90;;;22.05;100.00;100532.41;5055000;28;19925;-63
2021/09/07 00:05:54;;;;;;;;;;;21.80;99.90;;;22.06;100.00;100531.25;5054347;28;20411;-63
2021/09/07 00:08:22;;;;;;;;;;;21.90;99.90;;;22.09;100.00;100540.72;5054674;28;19932;-62
2021/09/07 00:10:50;;;;;;;;;;;21.90;99.90;;;22.10;100.00;100529.31;5055202;28;19924;-62
2021/09/07 00:13:18;;;;;;;;;;;21.90;99.90;;;22.10;100.00;100529.31;5055101;28;19929;-63
2021/09/07 00:15:46;;;;;;;;;;;22.00;99.90;;;22.13;100.00;100536.81;5054173;28;19925;-63
2021/09/07 07:21:17;;;;;;;;;;;22.60;99.90;;;22.52;100.00;100564.88;5016743;28;19926;-63
2021/09/07 07:23:47;;;;;;;;;;;22.60;99.90;;;22.52;100.00;100573.13;5031726;28;20035;-63
2021/09/07 07:26:15;;;;;;;;;;;22.60;99.90;;;22.51;100.00;100571.53;5035286;28;19982;-63
2021/09/07 07:28:43;;;;;;;;;;;22.50;99.90;;;22.53;100.00;100571.16;5035747;28;19925;-64
2021/09/07 07:31:11;;;;;;;;;;;22.50;99.90;;;22.52;100.00;100570.38;5035896;28;19956;-63
2021/09/07 07:33:39;;;;;;;;;;;22.50;99.90;;;22.53;100.00;100580.22;5035863;28;20383;-64
2021/09/07 07:36:06;;;;;;;;;;;22.50;99.90;;;22.57;100.00;100583.81;5035102;28;19979;-63
2021/09/07 07:38:34;;;;;;;;;;;22.60;99.90;;;22.58;100.00;100590.94;5035532;28;20015;-64
2021/09/07 07:41:03;;;;;;;;;;;22.60;99.90;;;22.56;100.00;100593.25;5035860;28;19925;-63
2021/09/07 07:43:33;;;;;;;;;;;22.60;99.90;;;22.63;100.00;100593.34;5035781;28;19929;-64
2021/09/07 07:46:01;;;;;;;;;;;22.60;99.90;;;22.72;100.00;100596.63;5034886;28;19925;-64
2021/09/07 07:48:29;;;;;;;;;;;22.70;99.90;;;22.79;100.00;100593.94;5035113;28;19962;-63
2021/09/07 07:50:56;;;;;;;;;;;22.70;99.90;;;22.85;100.00;100595.19;5035824;28;19979;-63
2021/09/07 07:53:24;;;;;;;;;;;22.80;99.90;;;22.92;100.00;100599.19;5035450;28;19929;-64
2021/09/07 07:55:52;;;;;;;;;;;22.80;99.90;;;22.98;100.00;100595.69;5034646;28;19983;-64
2021/09/07 07:58:21;;;;;;;;;;;22.90;99.90;;;23.05;100.00;100598.53;5034875;28;19925;-63
2021/09/07 08:00:48;;;;;;;;;;;23.00;99.90;;;23.12;100.00;100595.88;5035576;28;19995;-63
2021/09/07 08:03:16;;;;;;;;;;;23.10;99.90;;;23.09;100.00;100602.13;5035438;28;19925;-63
2021/09/07 08:05:44;;;;;;;;;;;23.10;99.90;;;23.02;100.00;100607.56;5034693;28;20003;-63
2021/09/07 08:08:12;;;;;;;;;;;23.10;99.90;;;22.95;100.00;100609.47;5034715;28;20387;-64
2021/09/07 08:10:39;;;;;;;;;;;23.10;99.90;;;22.89;100.00;100613.75;5035201;28;19979;-63
2021/09/07 08:13:07;;;;;;;;;;;23.00;99.90;;;22.82;100.00;100620.75;5035182;28;19990;-64
2021/09/07 08:15:37;;;;;;;;;;;23.00;99.90;;;22.92;100.00;100624.78;5034170;28;20350;-63
2021/09/07 08:18:04;;;;;;;;;;;22.90;99.90;;;23.20;100.00;100627.06;5034555;28;20454;-63
2021/09/07 08:20:33;;;;;;;;;;;23.10;99.90;;;23.51;100.00;100621.06;5035119;28;19929;-64
2021/09/07 08:23:02;;;;;;;;;;;23.30;99.90;;;23.94;100.00;100625.75;5034449;28;19951;-63
2021/09/07 08:25:30;;;;;;;;;;;23.50;99.90;;;24.33;100.00;100630.72;5034599;28;19980;-63
2021/09/07 08:27:58;;;;;;;;;;;23.90;99.90;;;24.65;100.00;100633.66;5034162;28;19983;-63
2021/09/07 08:30:26;;;;;;;;;;;24.20;99.90;;;24.82;100.00;100636.50;5035028;28;19940;-63
2021/09/07 08:32:56;;;;;;;;;;;24.50;99.90;;;24.86;100.00;100626.25;5034634;28;19929;-64
2021/09/07 08:35:23;;;;;;;;;;;24.70;99.90;;;24.92;100.00;100635.75;5034545;28;19929;-64
2021/09/07 08:37:51;;;;;;;;;;;24.80;99.90;;;25.26;100.00;100638.19;5033778;28;19929;-64
2021/09/07 08:40:19;;;;;;;;;;;25.00;99.90;;;25.62;100.00;100633.50;5034867;28;19925;-64
2021/09/07 08:42:47;;;;;;;;;;;25.20;99.90;;;26.13;100.00;100636.59;5034724;28;19929;-64
2021/09/07 08:45:16;;;;;;;;;;;25.50;99.90;;;26.79;100.00;100637.56;5034302;28;19980;-64
2021/09/07 08:47:47;;;;;;;;;;;26.10;99.90;;;27.01;100.00;100629.97;5033658;28;20028;-63
2021/09/07 08:50:16;;;;;;;;;;;26.50;99.90;;;27.15;100.00;100646.53;5034635;28;19929;-63
2021/09/07 08:52:44;;;;;;;;;;;26.80;99.90;;;27.04;100.00;100652.16;5034493;28;20376;-61
2021/09/07 08:55:12;;;;;;;;;;;26.90;99.90;;;26.81;100.00;100654.63;5034231;28;19932;-62
2021/09/07 08:57:40;;;;;;;;;;;26.90;99.90;;;26.70;100.00;100656.63;5033373;28;19925;-62
2021/09/07 09:00:11;;;;;;;;;;;26.90;99.90;;;26.71;100.00;100663.78;5034390;28;19932;-62
2021/09/07 09:02:45;;;;;;;;;;;26.90;99.90;;;26.78;100.00;100649.84;5034302;28;20024;-64
2021/09/07 09:05:13;;;;;;;;;;;26.90;99.90;;;27.09;100.00;100665.59;5034014;28;20086;-62
2021/09/07 09:07:42;;;;;;;;;;;26.90;99.90;;;27.49;100.00;100666.94;5032615;28;19925;-62
2021/09/07 09:10:20;;;;;;;;;;;27.30;99.90;;;28.02;100.00;100655.38;5034258;28;20304;-62
2021/09/07 09:12:47;;;;;;;;;;;27.60;99.90;;;28.33;100.00;100659.03;5034106;28;19932;-62
2021/09/07 09:15:17;;;;;;;;;;;27.90;99.90;;;28.50;100.00;100658.06;5033623;28;19925;-62
2021/09/07 09:17:46;;;;;;;;;;;28.20;99.90;;;28.59;100.00;100657.56;5033079;28;19925;-62
2021/09/07 09:20:16;;;;;;;;;;;28.30;99.90;;;28.57;100.00;100654.41;5034153;28;20368;-62
2021/09/07 09:22:50;;;;;;;;;;;28.30;99.90;;;28.73;100.00;100658.22;5033945;28;19925;-62
2021/09/07 09:25:36;;;;;;;;;;;28.40;99.90;;;28.99;100.00;100661.47;5033820;28;19931;-63
2021/09/07 09:28:10;;;;;;;;;;;28.60;99.90;;;29.20;100.00;100661.16;5033232;28;19929;-63
2021/09/07 09:30:39;;;;;;;;;;;28.80;99.90;;;29.41;100.00;100666.44;5034089;28;19925;-62
2021/09/07 09:33:09;;;;;;;;;;;29.00;99.90;;;29.57;100.00;100657.44;5033607;28;19929;-62
2021/09/07 09:35:55;;;;;;;;;;;29.20;99.90;;;29.67;100.00;100662.81;5031997;28;19952;-63
2021/09/07 09:38:26;;;;;;;;;;;29.40;99.90;;;29.64;100.00;100665.66;5033136;28;20031;-62
2021/09/07 09:40:57;;;;;;;;;;;29.40;99.90;;;29.72;100.00;100664.34;5033703;28;20265;-63
2021/09/07 09:43:32;;;;;;;;;;;29.50;99.90;;;29.56;100.00;100665.00;5033444;28;19925;-63
2021/09/07 09:46:17;;;;;;;;;;;29.40;99.90;;;29.43;100.00;100672.38;5032574;28;19929;-62
2021/09/07 09:48:45;;;;;;;;;;;29.20;99.90;;;29.42;100.00;100661.66;5033127;28;20323;-63
2021/09/07 09:51:15;;;;;;;;;;;29.30;99.90;;;29.39;100.00;100670.84;5033478;28;19929;-62
2021/09/07 09:53:46;;;;;;;;;;;29.30;99.90;;;29.40;100.00;100672.41;5033276;28;19929;-63
2021/09/07 09:56:14;;;;;;;;;;;29.30;99.90;;;29.41;100.00;100665.66;5032313;28;20048;-62
2021/09/07 09:58:42;;;;;;;;;;;29.30;99.90;;;29.70;100.00;100675.13;5032946;28;19925;-63
2021/09/07 10:01:10;;;;;;;;;;;29.40;99.90;;;29.83;100.00;100675.34;5033238;28;19936;-62
2021/09/07 10:03:40;;;;;;;;;;;29.50;99.90;;;29.88;100.00;100684.03;5033255;28;20272;-62
2021/09/07 10:06:08;;;;;;;;;;;29.60;99.90;;;29.79;100.00;100673.38;5032089;28;20435;-63
2021/09/07 10:08:41;;;;;;;;;;;29.70;99.90;;;29.58;100.00;100681.28;5032650;28;20012;-63
2021/09/07 10:11:13;;;;;;;;;;;29.60;99.90;;;29.44;100.00;100681.50;5033175;28;19925;-63
2021/09/07 10:13:43;;;;;;;;;;;29.50;99.90;;;29.39;100.00;100690.34;5033037;28;19929;-62
2021/09/07 10:16:12;;;;;;;;;;;29.40;99.90;;;29.30;100.00;100699.25;5032016;28;19929;-63
2021/09/07 10:18:53;;;;;;;;;;;29.30;99.90;;;29.22;100.00;100692.16;5032670;28;20380;-62
2021/09/07 10:24:53;;;;;;;;;;;29.20;99.90;;;29.21;100.00;100694.13;5032820;28;19932;-62
2021/09/07 10:27:22;;;;;;;;;;;29.30;99.90;;;29.18;100.00;100700.53;5031670;28;20356;-63
2021/09/07 10:29:50;;;;;;;;;;;29.20;99.90;;;29.05;100.00;100695.97;5032936;28;19929;-63
2021/09/07 10:32:29;;;;;;;;;;;29.20;99.90;;;28.82;100.00;100693.88;5032575;28;19952;-62
2021/09/07 10:35:10;;;;;;;;;;;29.10;99.90;;;28.62;100.00;100698.47;5032186;28;19925;-63
2021/09/07 10:38:07;;;;;;;;;;;28.90;99.90;;;28.62;100.00;100698.47;5031856;28;19929;-63
2021/09/07 10:40:53;;;;;;;;;;;28.80;99.90;;;28.44;100.00;100695.88;5032666;28;20356;-63
2021/09/07 10:43:51;;;;;;;;;;;28.60;99.90;;;28.53;100.00;100703.75;5032848;28;19975;-62
2021/09/07 10:46:55;;;;;;;;;;;28.50;99.90;;;28.77;100.00;100707.47;5031135;28;19983;-62
2021/09/07 10:49:27;;;;;;;;;;;28.60;99.90;;;28.91;100.00;100704.53;5023365;28;19928;-63
2021/09/07 10:52:16;;;;;;;;;;;28.70;99.90;;;29.02;100.00;100705.16;5032683;28;20380;-62
2021/09/07 10:54:50;;;;;;;;;;;28.80;99.90;;;28.99;100.00;100704.00;5032113;28;19929;-63
2021/09/07 10:57:52;;;;;;;;;;;28.90;99.90;;;28.90;100.00;100694.59;5031023;28;19932;-63
2021/09/07 11:00:35;;;;;;;;;;;28.90;99.90;;;28.91;100.00;100693.38;5032478;28;19925;-62
2021/09/07 11:03:07;;;;;;;;;;;;;;;28.96;100.00;100693.72;5032515;28;20015;-63
2021/09/07 11:05:45;;;;;;;;;;;28.90;99.90;;;29.15;100.00;100697.84;5031619;28;19979;-63
2021/09/07 11:08:18;;;;;;;;;;;29.00;99.90;;;29.19;100.00;100699.34;5031615;28;20373;-62
2021/09/07 11:10:48;;;;;;;;;;;29.00;99.90;;;29.07;100.00;100699.91;5032575;28;20039;-63
2021/09/07 11:13:24;;;;;;;;;;;29.00;99.90;;;29.11;100.00;100697.09;5032348;28;19933;-63
2021/09/07 11:15:54;;;;;;;;;;;29.00;99.90;;;29.21;100.00;100691.34;5031421;28;20393;-62
2021/09/07 11:18:24;;;;;;;;;;;29.20;99.90;;;29.19;100.00;100698.56;5031692;28;19932;-62
2021/09/07 11:20:53;;;;;;;;;;;29.20;99.90;;;29.42;100.00;100689.50;5032257;28;19925;-63
2021/09/07 11:23:23;;;;;;;;;;;29.30;99.90;;;29.33;100.00;100692.03;5032173;28;19979;-63
2021/09/07 11:25:52;;;;;;;;;;;29.30;99.90;;;29.41;100.00;100694.28;5031133;28;19936;-63
2021/09/07 11:28:20;;;;;;;;;;;29.40;99.90;;;29.57;100.00;100679.72;5031592;28;19925;-63
2021/09/07 11:30:51;;;;;;;;;;;29.40;99.90;;;29.70;100.00;100687.06;5032223;28;19925;-62
2021/09/07 11:33:22;;;;;;;;;;;29.60;99.90;;;29.70;100.00;100683.47;5032128;28;20367;-63
2021/09/07 11:35:51;;;;;;;;;;;29.60;99.90;;;29.80;100.00;100680.53;5031116;28;19982;-62
2021/09/07 11:38:20;;;;;;;;;;;29.70;99.90;;;29.77;100.00;100675.00;5031246;28;20450;-62
2021/09/07 11:40:52;;;;;;;;;;;29.70;99.90;;;29.74;100.00;100685.00;5032242;28;20331;-63
2021/09/07 11:43:30;;;;;;;;;;;29.70;99.90;;;29.81;100.00;100675.75;5032118;28;19925;-63
2021/09/07 11:46:08;;;;;;;;;;;29.80;99.90;;;29.79;100.00;100678.19;5030795;28;19933;-63
2021/09/07 11:48:39;;;;;;;;;;;29.80;99.90;;;29.76;100.00;100677.00;5031568;28;19925;-63
2021/09/07 11:51:07;;;;;;;;;;;29.80;99.90;;;29.88;100.00;100677.66;5031936;28;19929;-63
2021/09/07 11:53:35;;;;;;;;;;;29.90;99.90;;;29.91;100.00;100677.59;5031904;28;19925;-62
2021/09/07 11:56:03;;;;;;;;;;;29.90;99.90;;;29.94;100.00;100675.97;5030845;28;19932;-63
2021/09/07 11:58:36;;;;;;;;;;;29.90;99.90;;;29.92;100.00;100681.16;5032109;28;19936;-63
2021/09/07 12:01:09;;;;;;;;;;;30.00;99.90;;;29.84;100.00;100686.06;5035650;28;19933;-63
2021/09/07 12:04:03;;;;;;;;;;;30.00;99.90;;;29.78;100.00;100680.16;5035684;28;19967;-62
2021/09/07 12:06:32;;;;;;;;;;;29.90;99.90;;;29.91;100.00;100677.59;5033887;28;19929;-62
2021/09/07 12:09:13;;;;;;;;;;;30.00;99.90;;;29.90;100.00;100681.59;5035341;28;19925;-63
2021/09/07 12:11:42;;;;;;;;;;;29.90;99.90;;;29.96;100.00;100684.69;5035528;28;19933;-63
2021/09/07 12:14:11;;;;;;;;;;;30.00;99.90;;;29.83;100.00;100673.34;5035201;28;20308;-63
2021/09/07 12:16:49;;;;;;;;;;;30.00;99.90;;;29.73;100.00;100672.28;5033529;28;19979;-62
2021/09/07 12:19:23;;;;;;;;;;;29.90;99.90;;;29.76;100.00;100674.22;5035169;28;19936;-63
2021/09/07 12:22:21;;;;;;;;;;;29.90;99.90;;;29.70;99.31;100683.47;5035049;28;19929;-62
2021/09/07 12:25:05;;;;;;;;;;;29.90;99.90;;;29.58;100.00;100679.28;4935259;29;19926;-63
2021/09/07 12:27:34;;;;;;;;;;;29.80;99.90;;;29.54;100.00;100675.78;5021980;28;20304;-62
2021/09/07 12:30:21;;;;;;;;;;;29.70;99.90;;;29.58;100.00;100681.28;5035158;28;19936;-63
2021/09/07 12:32:54;;;;;;;;;;;29.70;99.90;;;29.55;100.00;100673.75;5034959;28;19932;-62
2021/09/07 12:35:37;;;;;;;;;;;29.70;99.90;;;29.63;100.00;100675.25;5034406;28;20335;-62
2021/09/07 12:38:08;;;;;;;;;;;29.70;99.90;;;29.82;100.00;100673.78;5034204;28;19979;-62
2021/09/07 12:40:36;;;;;;;;;;;29.80;99.90;;;29.76;100.00;100671.44;5034913;28;19971;-63
2021/09/07 12:43:07;;;;;;;;;;;29.90;99.90;;;29.61;100.00;100669.28;5034791;28;19929;-63
2021/09/07 12:45:35;;;;;;;;;;;29.80;99.90;;;29.57;100.00;100676.94;5033960;28;19932;-64
2021/09/07 12:48:03;;;;;;;;;;;29.80;99.90;;;29.47;100.00;100670.31;5033758;28;19933;-63
2021/09/07 12:50:33;;;;;;;;;;;29.70;99.90;;;29.51;100.00;100673.84;5034682;28;19929;-62
2021/09/07 12:53:01;;;;;;;;;;;29.70;99.90;;;29.48;100.00;100683.06;5034601;28;19925;-62
2021/09/07 12:55:30;;;;;;;;;;;29.70;99.90;;;29.49;100.00;100667.88;5034038;28;19929;-62
2021/09/07 12:57:58;;;;;;;;;;;29.60;99.90;;;29.41;100.00;100679.56;5033363;28;20339;-62
2021/09/07 13:00:26;;;;;;;;;;;29.60;99.90;;;29.40;100.00;100666.84;5034452;28;20380;-62
2021/09/07 13:02:53;;;;;;;;;;;29.60;99.90;;;29.45;100.00;100671.97;5034404;28;19931;-63
2021/09/07 13:05:21;;;;;;;;;;;29.60;99.90;;;29.50;100.00;100672.25;5033933;28;19936;-63
2021/09/07 13:07:50;;;;;;;;;;;29.60;99.90;;;29.51;100.00;100670.28;5032659;28;19925;-62
2021/09/07 13:10:18;;;;;;;;;;;29.60;99.90;;;29.48;99.33;100671.91;5034079;28;20329;-62
2021/09/07 13:12:46;;;;;;;;;;;29.60;99.90;;;29.47;100.00;100672.31;5034172;28;20360;-62
2021/09/07 13:15:13;;;;;;;;;;;29.60;99.90;;;29.56;100.00;100675.34;5033733;28;19925;-62
2021/09/07 13:17:41;;;;;;;;;;;29.70;99.90;;;29.45;100.00;100669.16;5032417;28;20277;-62
2021/09/07 13:20:10;;;;;;;;;;;29.70;99.90;;;29.46;100.00;100671.53;5034299;28;19925;-63
2021/09/07 13:22:38;;;;;;;;;;;29.70;99.90;;;29.51;100.00;100675.84;5034050;28;19979;-62
2021/09/07 13:25:08;;;;;;;;;;;29.70;99.90;;;29.51;100.00;100665.50;5033535;28;19925;-63
2021/09/07 13:27:35;;;;;;;;;;;29.80;99.90;;;29.54;100.00;100666.63;5032204;28;19926;-63
2021/09/07 13:30:04;;;;;;;;;;;29.80;99.90;;;29.71;100.00;100662.75;5034066;28;19925;-62
2021/09/07 13:32:31;;;;;;;;;;;29.90;99.90;;;29.65;100.00;100664.47;5033797;28;19925;-62
2021/09/07 13:34:59;;;;;;;;;;;29.90;99.90;;;29.50;100.00;100671.47;5033443;28;20004;-62
2021/09/07 13:37:27;;;;;;;;;;;29.80;99.90;;;29.53;100.00;100670.63;5032147;28;19925;-63
2021/09/07 13:39:55;;;;;;;;;;;29.80;99.90;;;29.60;100.00;100671.31;5033548;28;20439;-62
2021/09/07 13:42:24;;;;;;;;;;;29.80;99.90;;;29.77;100.00;100670.22;5033721;28;19952;-62
2021/09/07 13:44:52;;;;;;;;;;;29.90;99.90;;;29.74;100.00;100664.69;5033419;28;19979;-63
2021/09/07 13:47:19;;;;;;;;;;;30.00;99.90;;;29.86;100.00;100669.69;5032094;28;19983;-63
2021/09/07 13:49:47;;;;;;;;;;;30.00;99.90;;;29.95;100.00;100658.00;5033570;28;19971;-63
2021/09/07 13:52:15;;;;;;;;;;;30.10;99.90;;;30.06;100.00;100655.81;5033341;28;19925;-62
2021/09/07 13:54:42;;;;;;;;;;;30.30;99.90;;;30.14;100.00;100658.06;5033173;28;19929;-62
2021/09/07 13:57:10;;;;;;;;;;;30.40;99.90;;;30.22;100.00;100656.69;5031959;28;19979;-63
2021/09/07 13:59:39;;;;;;;;;;;30.50;99.90;;;30.21;100.00;100657.94;5033293;28;19951;-63
2021/09/07 14:02:07;;;;;;;;;;;30.50;99.90;;;30.16;100.00;100658.41;5033460;28;20350;-62
2021/09/07 14:04:34;;;;;;;;;;;30.50;99.90;;;30.07;100.00;100658.16;5033043;28;19928;-63
2021/09/07 14:07:02;;;;;;;;;;;30.50;99.90;;;29.89;100.00;100660.50;5031470;28;19926;-62
2021/09/07 14:09:30;;;;;;;;;;;30.40;99.90;;;29.75;100.00;100666.28;5032930;28;19929;-63
2021/09/07 14:11:58;;;;;;;;;;;30.30;99.90;;;29.69;100.00;100665.19;5033148;28;20150;-62
2021/09/07 14:14:25;;;;;;;;;;;30.20;99.90;;;29.52;100.00;100660.69;5032869;28;19932;-62
2021/09/07 14:16:54;;;;;;;;;;;30.10;99.90;;;29.59;100.00;100655.00;5031715;28;20331;-63
2021/09/07 14:19:23;;;;;;;;;;;30.00;99.90;;;29.71;100.00;100657.19;5032828;28;19979;-63
2021/09/07 14:21:51;;;;;;;;;;;30.00;99.90;;;29.81;100.00;100653.44;5032330;28;20395;-63
2021/09/07 14:24:19;;;;;;;;;;;30.10;99.90;;;29.84;100.00;100649.84;5032923;28;19999;-63
2021/09/07 14:26:47;;;;;;;;;;;30.20;99.90;;;29.87;100.00;100648.19;5031692;28;19975;-62
2021/09/07 14:29:14;;;;;;;;;;;30.10;99.90;;;29.88;100.00;100645.00;5032564;28;19925;-63
2021/09/07 14:31:42;;;;;;;;;;;30.20;99.90;;;29.68;100.00;100653.25;5032938;28;19925;-63
2021/09/07 14:34:11;;;;;;;;;;;30.10;99.90;;;29.58;100.00;100657.00;5032552;28;20387;-62
2021/09/07 14:36:39;;;;;;;;;;;30.10;99.90;;;29.53;100.00;100642.75;5031444;28;19952;-63
2021/09/07 14:39:07;;;;;;;;;;;30.00;99.90;;;29.42;100.00;100637.38;5032305;28;19925;-62
2021/09/07 14:41:34;;;;;;;;;;;29.90;99.90;;;29.46;100.00;100640.09;5032788;28;20002;-63
2021/09/07 14:44:02;;;;;;;;;;;29.90;99.90;;;29.44;100.00;100636.94;5032614;28;19925;-63
2021/09/07 14:46:30;;;;;;;;;;;29.80;99.90;;;29.41;100.00;100641.38;5031189;28;19971;-63
2021/09/07 14:48:58;;;;;;;;;;;29.80;99.90;;;29.50;100.00;100624.09;5032091;28;19929;-63
2021/09/07 14:51:27;;;;;;;;;;;29.80;99.90;;;29.79;100.00;100623.19;5032616;28;19926;-62
2021/09/07 14:53:55;;;;;;;;;;;29.90;99.90;;;29.85;100.00;100614.41;5032483;28;19979;-62
2021/09/07 14:56:22;;;;;;;;;;;30.00;99.90;;;29.85;100.00;100620.75;5031347;28;20257;-62
2021/09/07 14:58:50;;;;;;;;;;;30.10;99.90;;;29.84;100.00;100610.81;5031629;28;20446;-63
2021/09/07 15:01:18;;;;;;;;;;;30.10;99.90;;;29.84;100.00;100616.38;5032410;28;20335;-63
2021/09/07 15:03:45;;;;;;;;;;;30.20;99.90;;;29.77;100.00;100605.31;5032591;28;20372;-62
2021/09/07 15:06:13;;;;;;;;;;;30.20;99.90;;;29.73;100.00;100610.19;5031743;28;20450;-62
2021/09/07 15:08:42;;;;;;;;;;;30.10;99.90;;;29.66;100.00;100604.72;5031725;28;19925;-62
2021/09/07 15:11:10;;;;;;;;;;;30.10;99.90;;;29.76;100.00;100598.97;5032372;28;19925;-62
2021/09/07 15:13:37;;;;;;;;;;;30.10;99.90;;;29.84;100.00;100599.66;5032209;28;19925;-62
2021/09/07 15:16:05;;;;;;;;;;;30.30;99.90;;;29.88;100.00;100594.81;5031564;28;19925;-62
2021/09/07 15:18:34;;;;;;;;;;;30.30;99.90;;;30.09;100.00;100588.03;5031632;28;19929;-62
2021/09/07 15:21:02;;;;;;;;;;;30.40;99.90;;;30.00;100.00;100590.63;5032393;28;19929;-63
2021/09/07 15:23:30;;;;;;;;;;;30.40;99.90;;;30.00;100.00;100596.19;5032283;28;19969;-62
2021/09/07 15:26:01;;;;;;;;;;;30.40;99.90;;;30.18;100.00;100589.06;5031551;28;19932;-63
2021/09/07 15:28:29;;;;;;;;;;;30.50;99.90;;;30.25;100.00;100593.69;5031592;28;19932;-62
2021/09/07 15:30:57;;;;;;;;;;;30.60;99.90;;;30.39;100.00;100587.88;5032332;28;20372;-63
2021/09/07 15:33:25;;;;;;;;;;;30.60;99.90;;;30.52;100.00;100588.00;5032710;28;20380;-62
2021/09/07 15:35:53;;;;;;;;;;;30.80;99.90;;;30.32;98.75;100585.19;5035443;28;20333;-62
2021/09/07 15:38:20;;;;;;;;;;;30.80;99.90;;;30.03;100.00;100590.56;5035171;28;20446;-63
2021/09/07 15:40:48;;;;;;;;;;;30.70;99.90;;;29.99;100.00;100594.59;5035865;28;20384;-62
2021/09/07 15:43:17;;;;;;;;;;;30.60;99.90;;;29.90;100.00;100595.16;5035841;28;19929;-62
2021/09/07 15:45:45;;;;;;;;;;;30.50;99.90;;;29.80;100.00;100593.31;5035276;28;19971;-64
2021/09/07 15:48:13;;;;;;;;;;;30.40;99.90;;;29.94;100.00;100595.09;5035398;28;19925;-62
2021/09/07 15:50:40;;;;;;;;;;;30.40;99.90;;;30.06;100.00;100589.69;5035775;28;19979;-62
2021/09/07 15:53:08;;;;;;;;;;;30.50;99.90;;;30.24;100.00;100581.75;5035817;28;19929;-62
2021/09/07 15:55:36;;;;;;;;;;;30.50;99.90;;;30.20;100.00;100588.63;5034952;28;19929;-62
2021/09/07 15:58:03;;;;;;;;;;;30.60;99.90;;;30.12;100.00;100587.97;5035056;28;19979;-62
2021/09/07 16:00:33;;;;;;;;;;;30.60;99.90;;;30.12;100.00;100587.97;5035403;28;19960;-62
2021/09/07 16:03:01;;;;;;;;;;;30.50;99.90;;;30.02;100.00;100588.97;5035597;28;19925;-62
2021/09/07 16:05:29;;;;;;;;;;;30.50;99.90;;;30.11;100.00;100583.59;5035063;28;19935;-62
2021/09/07 16:07:59;;;;;;;;;;;30.50;99.90;;;30.07;100.00;100590.47;5034527;28;19925;-62
2021/09/07 16:10:27;;;;;;;;;;;30.50;99.90;;;30.16;100.00;100594.25;5035467;28;19925;-63
2021/09/07 16:12:54;;;;;;;;;;;30.50;99.90;;;30.18;100.00;100594.63;5035369;28;19925;-63
2021/09/07 16:15:22;;;;;;;;;;;30.60;99.90;;;30.04;100.00;100592.09;5034956;28;19999;-63
2021/09/07 16:17:51;;;;;;;;;;;30.50;99.90;;;30.02;100.00;100599.31;5034409;28;19971;-63
2021/09/07 16:20:19;;;;;;;;;;;30.40;99.90;;;29.78;100.00;100596.56;5034863;28;19925;-63
2021/09/07 16:22:47;;;;;;;;;;;30.40;99.90;;;29.59;100.00;100600.06;5035049;28;19932;-64
2021/09/07 16:25:15;;;;;;;;;;;30.20;99.90;;;29.51;100.00;100608.97;5034992;28;19971;-63
2021/09/07 16:27:42;;;;;;;;;;;30.20;99.90;;;29.52;100.00;100613.31;5034117;28;19925;-63
2021/09/07 16:30:11;;;;;;;;;;;30.10;99.90;;;29.46;100.00;100607.44;5034895;28;20368;-63
2021/09/07 16:32:40;;;;;;;;;;;30.10;99.90;;;29.43;100.00;100613.06;5034907;28;19979;-63
2021/09/07 16:35:10;;;;;;;;;;;30.00;99.90;;;29.35;100.00;100611.63;5034415;28;19929;-63
2021/09/07 16:37:39;;;;;;;;;;;29.90;99.90;;;29.18;100.00;100605.88;5033930;28;19932;-63
2021/09/07 16:40:10;;;;;;;;;;;29.80;99.90;;;29.06;100.00;100614.03;5034862;28;19925;-63
2021/09/07 16:42:37;;;;;;;;;;;29.70;99.90;;;29.08;100.00;100604.06;5034783;28;19925;-63
2021/09/07 16:45:06;;;;;;;;;;;29.60;99.90;;;29.12;100.00;100610.34;5033978;28;19929;-63
2021/09/07 16:47:34;;;;;;;;;;;29.60;99.90;;;29.04;100.00;100608.88;5033530;28;19987;-63
2021/09/07 16:50:02;;;;;;;;;;;29.50;99.90;;;29.05;100.00;100604.09;5034659;28;19925;-63
2021/09/07 16:52:35;;;;;;;;;;;29.50;99.90;;;28.87;100.00;100606.34;5034600;28;19934;-63
2021/09/07 16:55:05;;;;;;;;;;;29.40;99.90;;;28.59;100.00;100604.72;5034361;28;19932;-63
2021/09/07 16:57:33;;;;;;;;;;;29.30;99.90;;;28.41;100.00;100612.50;5033433;28;19929;-63
2021/09/07 17:00:02;;;;;;;;;;;29.10;99.90;;;28.33;100.00;100616.56;5034300;28;19925;-63
2021/09/07 17:02:33;;;;;;;;;;;29.00;99.90;;;28.34;100.00;100609.78;5034666;28;19932;-64
2021/09/07 17:05:01;;;;;;;;;;;28.90;99.90;;;28.27;100.00;100612.66;5034166;28;20019;-63
2021/09/07 17:07:34;;;;;;;;;;;28.80;99.90;;;28.12;100.00;100603.66;5033310;28;19983;-63
2021/09/07 17:10:04;;;;;;;;;;;28.70;99.90;;;28.05;100.00;100607.34;5034418;28;19953;-62
2021/09/07 17:12:33;;;;;;;;;;;28.50;99.90;;;27.78;100.00;100600.84;5033991;28;20265;-63
2021/09/07 17:15:01;;;;;;;;;;;28.40;99.90;;;27.48;100.00;100606.28;5033875;28;19994;-63
2021/09/07 17:17:29;;;;;;;;;;;28.10;99.90;;;27.27;100.00;100609.94;5033301;28;20284;-63
2021/09/07 17:19:59;;;;;;;;;;;27.90;99.90;;;27.07;100.00;100597.81;5034157;28;19972;-63
2021/09/07 17:22:27;;;;;;;;;;;27.70;99.90;;;26.96;100.00;100602.66;5033895;28;19925;-63
2021/09/07 17:24:55;;;;;;;;;;;27.50;99.90;;;26.87;100.00;100605.84;5033697;28;19933;-62
2021/09/07 17:27:24;;;;;;;;;;;27.30;99.90;;;26.73;100.00;100610.66;5032782;28;19929;-62
2021/09/07 17:29:52;;;;;;;;;;;27.20;99.90;;;26.64;100.00;100611.09;5033964;28;19951;-63
2021/09/07 17:32:24;;;;;;;;;;;27.10;99.90;;;26.52;100.00;100608.78;5033950;28;20273;-63
2021/09/07 17:34:58;;;;;;;;;;;27.00;99.90;;;26.45;100.00;100606.81;5033610;28;19925;-63
2021/09/07 17:37:44;;;;;;;;;;;26.90;99.90;;;26.33;100.00;100606.47;5032619;28;19929;-63
2021/09/07 17:42:59;;;;;;;;;;;26.60;99.90;;;26.05;100.00;100613.66;5033682;28;19932;-63
2021/09/07 17:45:27;;;;;;;;;;;26.50;99.90;;;26.01;100.00;100601.78;5033284;28;19979;-63
2021/09/07 17:47:54;;;;;;;;;;;26.40;99.90;;;26.00;100.00;100611.28;5032609;28;19925;-62
2021/09/07 17:50:22;;;;;;;;;;;26.40;99.90;;;25.97;100.00;100614.84;5033681;28;19925;-62
2021/09/07 17:52:50;;;;;;;;;;;26.30;99.90;;;25.87;100.00;100606.59;5033315;28;19947;-63
2021/09/07 17:55:18;;;;;;;;;;;26.20;99.90;;;25.86;100.00;100616.06;5032998;28;19980;-63
2021/09/07 17:57:45;;;;;;;;;;;26.20;99.90;;;25.83;100.00;100616.88;5031626;28;19925;-64
2021/09/07 18:00:15;;;;;;;;;;;26.10;99.90;;;25.75;100.00;100615.28;5033353;28;19929;-63
2021/09/07 18:02:44;;;;;;;;;;;26.10;99.90;;;25.67;100.00;100610.94;5033168;28;19933;-64
2021/09/07 18:05:14;;;;;;;;;;;26.00;99.90;;;25.57;100.00;100609.75;5032350;28;20214;-63
2021/09/07 18:07:43;;;;;;;;;;;25.90;99.90;;;25.50;100.00;100607.75;5032243;28;20339;-63
2021/09/07 18:10:11;;;;;;;;;;;25.80;99.90;;;25.43;100.00;100616.06;5033252;28;19929;-63
2021/09/07 18:12:39;;;;;;;;;;;25.80;99.90;;;25.39;100.00;100614.47;5032978;28;19925;-63
2021/09/07 18:15:07;;;;;;;;;;;25.70;99.90;;;25.29;100.00;100606.97;5032630;28;19955;-63
2021/09/07 18:17:38;;;;;;;;;;;25.60;99.90;;;25.25;100.00;100612.50;5031978;28;19925;-62
2021/09/07 18:20:06;;;;;;;;;;;;;;;25.21;100.00;100608.13;5033194;28;19925;-63
2021/09/07 18:22:34;;;;;;;;;;;25.40;99.90;;;25.06;100.00;100604.56;5032757;28;19929;-63
2021/09/07 18:25:02;;;;;;;;;;;25.30;99.90;;;24.89;100.00;100608.88;5032690;28;19929;-63